createdAt,value
2016-08-26T00:00:57.781Z,1155.17
2016-08-26T00:01:57.339Z,1155.24
2016-08-26T00:02:57.347Z,1155.31
2016-08-26T00:03:57.953Z,1155.33
2016-08-26T00:04:57.358Z,1155.39
2016-08-26T00:05:57.349Z,1155.46
2016-08-26T00:06:57.347Z,1155.53
2016-08-26T00:07:57.363Z,1155.58
2016-08-26T00:08:57.345Z,1155.6
2016-08-26T00:09:57.348Z,1155.63
2016-08-26T00:10:57.397Z,1155.7
2016-08-26T00:11:57.361Z,1155.75
2016-08-26T00:12:57.357Z,1155.76
2016-08-26T00:13:57.361Z,1155.82
2016-08-26T00:14:57.412Z,1155.83
2016-08-26T00:15:57.357Z,1155.84
2016-08-26T00:16:57.355Z,1155.85
2016-08-26T00:17:57.357Z,1155.89
2016-08-26T00:18:57.369Z,1155.92
2016-08-26T00:19:57.356Z,1155.99
2016-08-26T00:20:57.361Z,1155.99
2016-08-26T00:21:57.371Z,1156
2016-08-26T00:22:58.424Z,1156.04
2016-08-26T00:23:57.379Z,1156.08
2016-08-26T00:24:57.374Z,1156.06
2016-08-26T00:25:57.390Z,1156.07
2016-08-26T00:26:57.361Z,1156.08
2016-08-26T00:27:57.407Z,1156.08
2016-08-26T00:28:57.372Z,1156.14
2016-08-26T00:29:57.371Z,1156.15
2016-08-26T00:30:57.364Z,1156.16
2016-08-26T00:31:57.368Z,1156.24
2016-08-26T00:32:57.374Z,1156.23
2016-08-26T00:33:57.379Z,1156.31
2016-08-26T00:34:57.376Z,1156.29
2016-08-26T00:35:57.378Z,1156.36
2016-08-26T00:36:57.372Z,1156.41
2016-08-26T00:37:57.390Z,1156.44
2016-08-26T00:38:57.372Z,1156.5
2016-08-26T00:39:57.387Z,1156.49
2016-08-26T00:40:57.372Z,1156.54
2016-08-26T00:41:57.390Z,1156.58
2016-08-26T00:42:57.389Z,1156.59
2016-08-26T00:43:57.393Z,1156.64
2016-08-26T00:44:57.389Z,1156.73
2016-08-26T00:45:57.390Z,1156.75
2016-08-26T00:46:57.388Z,1156.81
2016-08-26T00:47:57.388Z,1156.78
2016-08-26T00:48:57.391Z,1156.82
2016-08-26T00:49:57.445Z,1156.89
2016-08-26T00:50:57.393Z,1156.87
2016-08-26T00:51:57.387Z,1156.92
2016-08-26T00:52:57.394Z,1156.93
2016-08-26T00:53:57.382Z,1156.96
2016-08-26T00:54:57.404Z,1156.92
2016-08-26T00:55:57.390Z,1156.92
2016-08-26T00:56:57.389Z,1156.95
2016-08-26T00:57:57.396Z,1156.99
2016-08-26T00:58:57.393Z,1157
2016-08-26T00:59:57.395Z,1157.06
2016-08-26T01:00:57.408Z,1157.06
2016-08-26T01:01:57.411Z,1157.1
2016-08-26T01:02:57.406Z,1157.1
2016-08-26T01:03:57.441Z,1157.14
2016-08-26T01:04:57.405Z,1157.17
2016-08-26T01:05:57.541Z,1157.18
2016-08-26T01:06:57.403Z,1157.22
2016-08-26T01:07:57.408Z,1157.25
2016-08-26T01:08:57.402Z,1157.25
2016-08-26T01:09:57.406Z,1157.24
2016-08-26T01:10:57.404Z,1157.32
2016-08-26T01:11:57.413Z,1157.32
2016-08-26T01:12:57.420Z,1157.35
2016-08-26T01:13:57.409Z,1157.34
2016-08-26T01:14:57.429Z,1157.36
2016-08-26T01:15:57.404Z,1157.39
2016-08-26T01:16:57.465Z,1157.43
2016-08-26T01:17:57.410Z,1157.46
2016-08-26T01:18:57.471Z,1157.44
2016-08-26T01:19:57.427Z,1157.49
2016-08-26T01:20:57.429Z,1157.45
2016-08-26T01:21:57.415Z,1157.47
2016-08-26T01:22:57.409Z,1157.5
2016-08-26T01:23:57.417Z,1157.48
2016-08-26T01:24:57.423Z,1157.53
2016-08-26T01:25:57.443Z,1157.53
2016-08-26T01:26:57.436Z,1157.51
2016-08-26T01:27:57.428Z,1157.55
2016-08-26T01:28:57.435Z,1157.56
2016-08-26T01:29:57.429Z,1157.59
2016-08-26T01:30:57.577Z,1157.59
2016-08-26T01:31:57.443Z,1157.59
2016-08-26T01:32:57.425Z,1157.55
2016-08-26T01:33:57.427Z,1157.54
2016-08-26T01:34:57.435Z,1157.56
2016-08-26T01:35:57.442Z,1157.55
2016-08-26T01:36:57.451Z,1157.57
2016-08-26T01:37:57.454Z,1157.53
2016-08-26T01:38:57.445Z,1157.5
2016-08-26T01:39:57.444Z,1157.53
2016-08-26T01:40:57.435Z,1157.53
2016-08-26T01:41:57.442Z,1157.52
2016-08-26T01:42:57.453Z,1157.53
2016-08-26T01:43:57.447Z,1157.57
2016-08-26T01:44:57.443Z,1157.51
2016-08-26T01:45:57.440Z,1157.54
2016-08-26T01:46:58.419Z,1157.56
2016-08-26T01:47:57.454Z,1157.54
2016-08-26T01:48:57.439Z,1157.51
2016-08-26T01:49:57.451Z,1157.56
2016-08-26T01:50:57.456Z,1157.52
2016-08-26T01:51:57.459Z,1157.51
2016-08-26T01:52:57.454Z,1157.51
2016-08-26T01:53:57.455Z,1157.52
2016-08-26T01:54:57.451Z,1157.52
2016-08-26T01:55:57.454Z,1157.54
2016-08-26T01:56:57.454Z,1157.5
2016-08-26T01:57:57.454Z,1157.51
2016-08-26T01:58:57.459Z,1157.48
2016-08-26T01:59:57.451Z,1157.59
2016-08-26T02:00:57.446Z,1157.57
2016-08-26T02:01:57.465Z,1157.55
2016-08-26T02:02:57.456Z,1157.55
2016-08-26T02:03:57.453Z,1157.58
2016-08-26T02:04:57.441Z,1157.52
2016-08-26T02:05:57.457Z,1157.52
2016-08-26T02:06:57.463Z,1157.51
2016-08-26T02:07:57.468Z,1157.56
2016-08-26T02:08:57.483Z,1157.55
2016-08-26T02:09:57.497Z,1157.53
2016-08-26T02:10:57.474Z,1157.56
2016-08-26T02:11:57.469Z,1157.52
2016-08-26T02:12:57.475Z,1157.53
2016-08-26T02:13:57.509Z,1157.54
2016-08-26T02:14:57.464Z,1157.55
2016-08-26T02:15:57.558Z,1157.54
2016-08-26T02:16:57.475Z,1157.52
2016-08-26T02:17:57.468Z,1157.49
2016-08-26T02:18:57.469Z,1157.5
2016-08-26T02:19:57.553Z,1157.51
2016-08-26T02:20:57.475Z,1157.52
2016-08-26T02:21:57.470Z,1157.51
2016-08-26T02:22:57.486Z,1157.49
2016-08-26T02:23:57.483Z,1157.5
2016-08-26T02:24:57.485Z,1157.5
2016-08-26T02:25:57.522Z,1157.48
2016-08-26T02:26:57.515Z,1157.5
2016-08-26T02:27:57.517Z,1157.5
2016-08-26T02:28:57.486Z,1157.47
2016-08-26T02:29:57.475Z,1157.44
2016-08-26T02:30:57.552Z,1157.39
2016-08-26T02:31:57.489Z,1157.36
2016-08-26T02:32:57.486Z,1157.34
2016-08-26T02:33:57.489Z,1157.34
2016-08-26T02:34:57.516Z,1157.34
2016-08-26T02:35:57.489Z,1157.32
2016-08-26T02:36:57.491Z,1157.27
2016-08-26T02:37:57.485Z,1157.28
2016-08-26T02:38:57.610Z,1157.3
2016-08-26T02:39:57.485Z,1157.25
2016-08-26T02:40:57.504Z,1157.25
2016-08-26T02:41:57.510Z,1157.21
2016-08-26T02:42:57.512Z,1157.29
2016-08-26T02:43:57.524Z,1157.23
2016-08-26T02:44:57.511Z,1157.2
2016-08-26T02:45:57.516Z,1157.18
2016-08-26T02:46:57.509Z,1157.17
2016-08-26T02:47:57.501Z,1157.15
2016-08-26T02:48:57.507Z,1157.1
2016-08-26T02:49:57.517Z,1157.11
2016-08-26T02:50:57.507Z,1157.08
2016-08-26T02:51:57.618Z,1157.04
2016-08-26T02:52:57.522Z,1156.97
2016-08-26T02:53:57.511Z,1156.98
2016-08-26T02:54:57.517Z,1157.01
2016-08-26T02:55:57.505Z,1157.01
2016-08-26T02:56:57.518Z,1157.02
2016-08-26T02:57:57.504Z,1157.05
2016-08-26T02:58:57.520Z,1157.05
2016-08-26T02:59:57.503Z,1157.03
2016-08-26T03:00:57.516Z,1157.03
2016-08-26T03:01:57.509Z,1157.05
2016-08-26T03:02:57.522Z,1157.01
2016-08-26T03:03:57.523Z,1157.01
2016-08-26T03:04:57.518Z,1157.01
2016-08-26T03:05:57.537Z,1157.02
2016-08-26T03:06:57.520Z,1157
2016-08-26T03:07:57.580Z,1156.97
2016-08-26T03:08:57.517Z,1157.02
2016-08-26T03:09:57.526Z,1157
2016-08-26T03:10:57.601Z,1157
2016-08-26T03:11:57.519Z,1156.97
2016-08-26T03:12:57.534Z,1156.93
2016-08-26T03:13:57.517Z,1156.9
2016-08-26T03:14:57.526Z,1156.91
2016-08-26T03:15:57.553Z,1156.89
2016-08-26T03:16:57.879Z,1156.88
2016-08-26T03:17:57.528Z,1156.83
2016-08-26T03:18:57.539Z,1156.79
2016-08-26T03:19:57.533Z,1156.73
2016-08-26T03:20:57.542Z,1156.81
2016-08-26T03:21:57.557Z,1156.79
2016-08-26T03:22:57.539Z,1156.76
2016-08-26T03:23:57.562Z,1156.76
2016-08-26T03:24:57.540Z,1156.78
2016-08-26T03:25:57.534Z,1156.8
2016-08-26T03:26:57.577Z,1156.73
2016-08-26T03:27:57.551Z,1156.73
2016-08-26T03:28:57.531Z,1156.74
2016-08-26T03:29:57.537Z,1156.73
2016-08-26T03:30:57.548Z,1156.7
2016-08-26T03:31:57.536Z,1156.71
2016-08-26T03:32:57.543Z,1156.63
2016-08-26T03:33:57.547Z,1156.6
2016-08-26T03:34:57.554Z,1156.61
2016-08-26T03:35:57.604Z,1156.54
2016-08-26T03:36:57.541Z,1156.55
2016-08-26T03:37:57.551Z,1156.49
2016-08-26T03:38:57.553Z,1156.48
2016-08-26T03:39:57.560Z,1156.47
2016-08-26T03:40:57.553Z,1156.5
2016-08-26T03:41:57.545Z,1156.48
2016-08-26T03:42:57.556Z,1156.49
2016-08-26T03:43:57.555Z,1156.41
2016-08-26T03:44:57.554Z,1156.44
2016-08-26T03:45:57.575Z,1156.41
2016-08-26T03:46:57.570Z,1156.37
2016-08-26T03:47:57.568Z,1156.34
2016-08-26T03:48:57.551Z,1156.38
2016-08-26T03:49:57.625Z,1156.36
2016-08-26T03:50:57.581Z,1156.35
2016-08-26T03:51:57.571Z,1156.34
2016-08-26T03:52:57.566Z,1156.28
2016-08-26T03:53:57.557Z,1156.2
2016-08-26T03:54:57.562Z,1156.27
2016-08-26T03:55:57.717Z,1156.14
2016-08-26T03:56:57.565Z,1156.1
2016-08-26T03:57:57.567Z,1156.14
2016-08-26T03:58:57.569Z,1156.08
2016-08-26T03:59:57.582Z,1156
2016-08-26T04:00:57.565Z,1156
2016-08-26T04:01:57.566Z,1156.01
2016-08-26T04:02:57.572Z,1155.98
2016-08-26T04:03:57.651Z,1155.83
2016-08-26T04:04:57.578Z,1155.87
2016-08-26T04:05:57.596Z,1155.77
2016-08-26T04:06:57.570Z,1155.66
2016-08-26T04:07:57.584Z,1155.63
2016-08-26T04:08:57.579Z,1155.59
2016-08-26T04:09:57.578Z,1155.68
2016-08-26T04:10:57.586Z,1155.64
2016-08-26T04:11:57.591Z,1155.7
2016-08-26T04:12:57.587Z,1155.68
2016-08-26T04:13:57.602Z,1155.7
2016-08-26T04:14:57.627Z,1155.67
2016-08-26T04:15:57.579Z,1155.59
2016-08-26T04:16:57.584Z,1155.59
2016-08-26T04:17:57.603Z,1155.59
2016-08-26T04:18:57.596Z,1155.63
2016-08-26T04:19:57.590Z,1155.56
2016-08-26T04:20:57.582Z,1155.54
2016-08-26T04:21:57.682Z,1155.49
2016-08-26T04:22:57.701Z,1155.5
2016-08-26T04:23:57.590Z,1155.55
2016-08-26T04:24:57.596Z,1155.48
2016-08-26T04:25:57.630Z,1155.5
2016-08-26T04:26:57.596Z,1155.49
2016-08-26T04:27:57.588Z,1155.45
2016-08-26T04:28:57.593Z,1155.5
2016-08-26T04:29:57.600Z,1155.61
2016-08-26T04:30:57.598Z,1155.58
2016-08-26T04:31:57.597Z,1155.61
2016-08-26T04:32:57.599Z,1155.64
2016-08-26T04:33:57.651Z,1155.67
2016-08-26T04:34:57.603Z,1155.74
2016-08-26T04:35:57.596Z,1155.72
2016-08-26T04:36:57.601Z,1155.79
2016-08-26T04:37:57.608Z,1155.72
2016-08-26T04:38:57.615Z,1155.8
2016-08-26T04:39:57.604Z,1155.82
2016-08-26T04:40:57.598Z,1155.85
2016-08-26T04:41:57.630Z,1155.93
2016-08-26T04:42:57.614Z,1156
2016-08-26T04:43:57.623Z,1156.06
2016-08-26T04:44:57.606Z,1156.1
2016-08-26T04:45:57.606Z,1156.23
2016-08-26T04:46:57.616Z,1156.27
2016-08-26T04:47:57.615Z,1156.37
2016-08-26T04:48:57.621Z,1156.47
2016-08-26T04:49:57.614Z,1156.54
2016-08-26T04:50:57.617Z,1156.64
2016-08-26T04:51:57.615Z,1156.68
2016-08-26T04:52:57.812Z,1156.8
2016-08-26T04:53:57.621Z,1156.89
2016-08-26T04:54:57.620Z,1156.93
2016-08-26T04:55:57.623Z,1156.96
2016-08-26T04:56:57.623Z,1157.03
2016-08-26T04:57:57.616Z,1157.08
2016-08-26T04:58:57.621Z,1157.18
2016-08-26T04:59:57.623Z,1157.18
2016-08-26T05:00:57.617Z,1157.31
2016-08-26T05:01:57.623Z,1157.25
2016-08-26T05:02:57.635Z,1157.33
2016-08-26T05:03:57.638Z,1157.39
2016-08-26T05:04:57.630Z,1157.46
2016-08-26T05:05:57.631Z,1157.52
2016-08-26T05:06:57.634Z,1157.58
2016-08-26T05:07:57.638Z,1157.61
2016-08-26T05:08:57.645Z,1157.67
2016-08-26T05:09:57.633Z,1157.71
2016-08-26T05:10:57.630Z,1157.78
2016-08-26T05:11:57.635Z,1157.83
2016-08-26T05:12:57.635Z,1157.94
2016-08-26T05:13:57.632Z,1157.93
2016-08-26T05:14:57.640Z,1157.97
2016-08-26T05:15:57.631Z,1158.05
2016-08-26T05:16:57.640Z,1158.08
2016-08-26T05:17:57.645Z,1158.11
2016-08-26T05:18:57.682Z,1158.13
2016-08-26T05:19:57.725Z,1158.2
2016-08-26T05:20:57.648Z,1158.27
2016-08-26T05:21:57.648Z,1158.35
2016-08-26T05:22:57.661Z,1158.36
2016-08-26T05:23:57.639Z,1158.37
2016-08-26T05:24:57.645Z,1158.43
2016-08-26T05:25:57.663Z,1158.42
2016-08-26T05:26:57.663Z,1158.47
2016-08-26T05:27:57.652Z,1158.45
2016-08-26T05:28:57.658Z,1158.47
2016-08-26T05:29:57.647Z,1158.49
2016-08-26T05:30:57.664Z,1158.43
2016-08-26T05:31:57.652Z,1158.37
2016-08-26T05:32:57.653Z,1158.32
2016-08-26T05:33:57.647Z,1158.29
2016-08-26T05:34:57.653Z,1158.19
2016-08-26T05:35:57.661Z,1158.11
2016-08-26T05:36:57.658Z,1158.02
2016-08-26T05:37:57.664Z,1157.85
2016-08-26T05:38:57.661Z,1157.67
2016-08-26T05:39:57.663Z,1157.47
2016-08-26T05:40:57.661Z,1157.26
2016-08-26T05:41:57.662Z,1157.03
2016-08-26T05:42:57.671Z,1156.82
2016-08-26T05:43:57.679Z,1156.56
2016-08-26T05:44:57.665Z,1156.32
2016-08-26T05:45:57.674Z,1156.09
2016-08-26T05:46:57.681Z,1155.84
2016-08-26T05:47:57.671Z,1155.54
2016-08-26T05:48:57.664Z,1155.23
2016-08-26T05:49:57.666Z,1154.97
2016-08-26T05:50:57.692Z,1154.74
2016-08-26T05:51:57.661Z,1154.35
2016-08-26T05:52:57.678Z,1154.05
2016-08-26T05:53:57.678Z,1153.74
2016-08-26T05:54:57.679Z,1153.42
2016-08-26T05:55:57.680Z,1153
2016-08-26T05:56:57.685Z,1152.72
2016-08-26T05:57:57.679Z,1152.2
2016-08-26T05:58:57.680Z,1151.82
2016-08-26T05:59:57.674Z,1151.4
2016-08-26T06:00:57.695Z,1150.83
2016-08-26T06:01:57.679Z,1150.38
2016-08-26T06:02:57.679Z,1149.77
2016-08-26T06:03:57.685Z,1149.1
2016-08-26T06:04:57.693Z,1148.42
2016-08-26T06:05:57.710Z,1147.63
2016-08-26T06:06:57.688Z,1146.92
2016-08-26T06:07:57.681Z,1146.18
2016-08-26T06:08:57.697Z,1145.2
2016-08-26T06:09:57.686Z,1144.28
2016-08-26T06:10:57.685Z,1143.47
2016-08-26T06:11:57.693Z,1142.39
2016-08-26T06:12:57.685Z,1141.36
2016-08-26T06:13:57.692Z,1140.47
2016-08-26T06:14:57.696Z,1139.59
2016-08-26T06:15:57.693Z,1138.58
2016-08-26T06:16:57.693Z,1137.72
2016-08-26T06:17:57.688Z,1136.85
2016-08-26T06:18:57.705Z,1135.98
2016-08-26T06:19:57.686Z,1135.13
2016-08-26T06:20:57.711Z,1134.34
2016-08-26T06:21:57.694Z,1133.41
2016-08-26T06:22:57.692Z,1132.29
2016-08-26T06:23:57.699Z,1131.06
2016-08-26T06:24:57.696Z,1129.79
2016-08-26T06:25:57.702Z,1128.4
2016-08-26T06:26:57.695Z,1127.13
2016-08-26T06:27:57.711Z,1125.63
2016-08-26T06:28:57.708Z,1124.21
2016-08-26T06:29:57.696Z,1122.85
2016-08-26T06:30:57.711Z,1121.48
2016-08-26T06:31:57.711Z,1120.04
2016-08-26T06:32:57.700Z,1118.8
2016-08-26T06:33:57.710Z,1117.39
2016-08-26T06:34:57.716Z,1116.42
2016-08-26T06:35:57.711Z,1114.93
2016-08-26T06:36:57.717Z,1113.57
2016-08-26T06:37:57.710Z,1112
2016-08-26T06:38:57.728Z,1110.38
2016-08-26T06:39:57.709Z,1108.67
2016-08-26T06:40:57.712Z,1107.07
2016-08-26T06:41:57.727Z,1104.88
2016-08-26T06:42:57.712Z,1102.77
2016-08-26T06:43:57.726Z,1100.67
2016-08-26T06:44:57.730Z,1098.68
2016-08-26T06:45:57.751Z,1096.11
2016-08-26T06:46:57.726Z,1093.61
2016-08-26T06:47:57.727Z,1090.78
2016-08-26T06:48:57.723Z,1088.24
2016-08-26T06:49:57.717Z,1085.68
2016-08-26T06:50:57.733Z,1083.31
2016-08-26T06:51:57.730Z,1081.02
2016-08-26T06:52:57.728Z,1078.17
2016-08-26T06:53:57.729Z,1075.66
2016-08-26T06:54:57.741Z,1073.53
2016-08-26T06:55:57.740Z,1071.22
2016-08-26T06:56:57.731Z,1069.08
2016-08-26T06:57:57.742Z,1067.28
2016-08-26T06:58:57.732Z,1065.6
2016-08-26T06:59:57.747Z,1063.51
2016-08-26T07:00:57.777Z,1061.74
2016-08-26T07:01:57.748Z,1060.44
2016-08-26T07:02:57.741Z,1059.12
2016-08-26T07:03:57.738Z,1057.99
2016-08-26T07:04:57.740Z,1056.74
2016-08-26T07:05:57.739Z,1055.92
2016-08-26T07:06:57.742Z,1054.77
2016-08-26T07:07:57.742Z,1053.69
2016-08-26T07:08:57.753Z,1053.14
2016-08-26T07:09:57.747Z,1051.92
2016-08-26T07:10:57.756Z,1050.96
2016-08-26T07:11:57.740Z,1050.01
2016-08-26T07:12:57.753Z,1048.54
2016-08-26T07:13:57.755Z,1047.54
2016-08-26T07:14:57.756Z,1045.78
2016-08-26T07:15:57.748Z,1043.81
2016-08-26T07:16:57.765Z,1041.35
2016-08-26T07:17:57.759Z,1038.82
2016-08-26T07:18:57.750Z,1036.17
2016-08-26T07:19:57.760Z,1033.4
2016-08-26T07:20:57.761Z,1030.54
2016-08-26T07:21:57.754Z,1027.32
2016-08-26T07:22:57.763Z,1024.16
2016-08-26T07:23:57.757Z,1021
2016-08-26T07:24:57.786Z,1018.53
2016-08-26T07:25:57.788Z,1016.28
2016-08-26T07:26:57.777Z,1014.36
2016-08-26T07:27:57.772Z,1012.94
2016-08-26T07:28:57.827Z,1011.06
2016-08-26T07:29:57.762Z,1009.17
2016-08-26T07:30:57.773Z,1007.05
2016-08-26T07:31:57.783Z,1005.12
2016-08-26T07:32:57.774Z,1003.26
2016-08-26T07:33:57.775Z,1000.9
2016-08-26T07:34:57.770Z,999.04
2016-08-26T07:35:57.766Z,997
2016-08-26T07:36:57.777Z,994.89
2016-08-26T07:37:57.774Z,992.38
2016-08-26T07:38:57.771Z,989.42
2016-08-26T07:39:57.789Z,986.97
2016-08-26T07:40:57.773Z,984.44
2016-08-26T07:41:57.788Z,982.16
2016-08-26T07:42:57.781Z,980.22
2016-08-26T07:43:57.783Z,978.03
2016-08-26T07:44:57.790Z,976.23
2016-08-26T07:45:57.790Z,974.67
2016-08-26T07:46:57.790Z,972.89
2016-08-26T07:47:57.789Z,971.52
2016-08-26T07:48:57.789Z,970.06
2016-08-26T07:49:57.792Z,968.01
2016-08-26T07:50:57.804Z,966.59
2016-08-26T07:51:57.790Z,966.78
2016-08-26T07:52:57.796Z,966.16
2016-08-26T07:53:57.793Z,964.97
2016-08-26T07:54:57.796Z,963.39
2016-08-26T07:55:57.821Z,961.23
2016-08-26T07:56:57.797Z,959.24
2016-08-26T07:57:57.800Z,956.56
2016-08-26T07:58:57.793Z,954.22
2016-08-26T07:59:57.803Z,950.61
2016-08-26T08:00:57.806Z,946.99
2016-08-26T08:01:57.809Z,944.23
2016-08-26T08:02:57.831Z,941.11
2016-08-26T08:03:57.822Z,937.1
2016-08-26T08:04:57.803Z,934.08
2016-08-26T08:05:57.801Z,931.61
2016-08-26T08:06:57.805Z,930.28
2016-08-26T08:07:57.803Z,931.3
2016-08-26T08:08:57.898Z,931.14
2016-08-26T08:09:57.843Z,931.39
2016-08-26T08:10:57.808Z,931.9
2016-08-26T08:11:57.808Z,932.88
2016-08-26T08:12:57.823Z,934.09
2016-08-26T08:13:58.359Z,935.46
2016-08-26T08:14:57.823Z,936.68
2016-08-26T08:15:57.824Z,937.11
2016-08-26T08:16:57.843Z,936.44
2016-08-26T08:17:57.833Z,935.45
2016-08-26T08:18:57.838Z,934.04
2016-08-26T08:19:57.819Z,931.96
2016-08-26T08:20:57.826Z,929
2016-08-26T08:21:57.820Z,926.38
2016-08-26T08:22:57.830Z,923.76
2016-08-26T08:23:57.818Z,922.94
2016-08-26T08:24:58.419Z,921.9
2016-08-26T08:25:57.827Z,921.77
2016-08-26T08:26:57.841Z,920.42
2016-08-26T08:27:57.821Z,918.35
2016-08-26T08:28:57.854Z,916.71
2016-08-26T08:29:57.839Z,915.29
2016-08-26T08:30:57.853Z,912.75
2016-08-26T08:31:57.837Z,910.4
2016-08-26T08:32:57.835Z,908.35
2016-08-26T08:33:57.834Z,905.87
2016-08-26T08:34:57.834Z,903.61
2016-08-26T08:35:57.835Z,901.11
2016-08-26T08:36:57.862Z,898.48
2016-08-26T08:37:57.843Z,895.7
2016-08-26T08:38:57.899Z,893.97
2016-08-26T08:39:57.869Z,892.11
2016-08-26T08:40:57.843Z,890.37
2016-08-26T08:41:57.858Z,888.89
2016-08-26T08:42:57.838Z,888.07
2016-08-26T08:43:57.843Z,886.73
2016-08-26T08:44:57.850Z,885.67
2016-08-26T08:45:57.839Z,884.94
2016-08-26T08:46:57.850Z,884.08
2016-08-26T08:47:57.855Z,882.74
2016-08-26T08:48:58.406Z,880.61
2016-08-26T08:49:57.855Z,879.1
2016-08-26T08:50:57.863Z,877.75
2016-08-26T08:51:57.853Z,874.2
2016-08-26T08:52:57.864Z,869.25
2016-08-26T08:53:57.866Z,865.63
2016-08-26T08:54:58.288Z,861.39
2016-08-26T08:55:57.851Z,856.24
2016-08-26T08:56:57.852Z,851.1
2016-08-26T08:57:57.895Z,846.3
2016-08-26T08:58:58.136Z,842.94
2016-08-26T08:59:57.864Z,839.7
2016-08-26T09:00:57.865Z,838.25
2016-08-26T09:01:57.869Z,836.48
2016-08-26T09:02:58.521Z,836.22
2016-08-26T09:03:57.867Z,835.95
2016-08-26T09:04:57.866Z,836.07
2016-08-26T09:05:57.873Z,837.1
2016-08-26T09:06:57.875Z,837.43
2016-08-26T09:07:57.873Z,837.57
2016-08-26T09:08:57.865Z,836.11
2016-08-26T09:09:57.871Z,835.49
2016-08-26T09:10:57.869Z,833.86
2016-08-26T09:11:57.878Z,832.41
2016-08-26T09:12:57.882Z,831.09
2016-08-26T09:13:58.335Z,828.07
2016-08-26T09:14:57.898Z,824.66
2016-08-26T09:15:57.891Z,821.02
2016-08-26T09:16:57.884Z,818.31
2016-08-26T09:17:57.882Z,815.85
2016-08-26T09:18:57.918Z,812.18
2016-08-26T09:19:57.894Z,807.03
2016-08-26T09:20:58.559Z,800.86
2016-08-26T09:21:57.903Z,795.1
2016-08-26T09:22:57.899Z,788.34
2016-08-26T09:23:57.887Z,781.05
2016-08-26T09:24:57.913Z,774.18
2016-08-26T09:25:57.915Z,766.41
2016-08-26T09:26:57.900Z,760.37
2016-08-26T09:27:57.894Z,753.34
2016-08-26T09:28:57.902Z,748.07
2016-08-26T09:29:57.892Z,743.22
2016-08-26T09:30:57.912Z,736.66
2016-08-26T09:31:57.907Z,729.4
2016-08-26T09:32:57.924Z,722.59
2016-08-26T09:33:57.902Z,715.06
2016-08-26T09:34:57.904Z,707.45
2016-08-26T09:35:57.926Z,700.47
2016-08-26T09:36:57.907Z,693.81
2016-08-26T09:37:57.918Z,688.53
2016-08-26T09:38:57.911Z,685.5
2016-08-26T09:39:57.910Z,681.93
2016-08-26T09:40:57.902Z,680.7
2016-08-26T09:41:58.185Z,680.86
2016-08-26T09:42:57.916Z,683.03
2016-08-26T09:43:57.913Z,685.52
2016-08-26T09:44:57.916Z,685.53
2016-08-26T09:45:57.927Z,686.24
2016-08-26T09:46:57.927Z,687.3
2016-08-26T09:47:57.914Z,687.85
2016-08-26T09:48:57.937Z,689.8
2016-08-26T09:49:58.469Z,690.84
2016-08-26T09:50:58.800Z,691.18
2016-08-26T09:51:58.235Z,691.03
2016-08-26T09:52:57.928Z,691.7
2016-08-26T09:53:57.931Z,691.71
2016-08-26T09:54:57.923Z,692.17
2016-08-26T09:55:57.965Z,692.89
2016-08-26T09:56:57.929Z,695.69
2016-08-26T09:57:57.933Z,698.53
2016-08-26T09:58:57.931Z,700.65
2016-08-26T09:59:57.923Z,702.59
2016-08-26T10:00:57.949Z,704.36
2016-08-26T10:01:57.934Z,706.85
2016-08-26T10:02:57.935Z,708.31
2016-08-26T10:03:57.943Z,710.46
2016-08-26T10:04:57.948Z,712.53
2016-08-26T10:05:57.936Z,713.2
2016-08-26T10:06:57.945Z,715.07
2016-08-26T10:07:57.950Z,716.42
2016-08-26T10:08:57.956Z,718.46
2016-08-26T10:09:57.947Z,720.52
2016-08-26T10:10:58.112Z,723.27
2016-08-26T10:11:57.961Z,723.65
2016-08-26T10:12:57.958Z,723.15
2016-08-26T10:13:57.947Z,720.82
2016-08-26T10:14:57.960Z,719.96
2016-08-26T10:15:57.946Z,717.73
2016-08-26T10:16:57.950Z,717.41
2016-08-26T10:17:58.610Z,716.55
2016-08-26T10:18:58.645Z,716.39
2016-08-26T10:20:02.995Z,716.58
2016-08-26T10:21:29.273Z,717.06
2016-08-26T10:29:41.859Z,713.07
2016-08-26T10:30:41.853Z,713.21
2016-08-26T10:31:41.845Z,713.56
2016-08-26T10:32:41.853Z,715.98
2016-08-26T10:33:41.938Z,717.23
2016-08-26T10:34:41.851Z,718.64
2016-08-26T10:35:42.011Z,719.16
2016-08-26T10:36:41.921Z,718.67
2016-08-26T10:37:41.858Z,719.69
2016-08-26T10:38:41.856Z,720.57
2016-08-26T10:39:41.870Z,721.62
2016-08-26T10:40:41.858Z,721.98
2016-08-26T10:41:41.877Z,723.55
2016-08-26T10:42:41.857Z,725.61
2016-08-26T10:43:41.852Z,726.28
2016-08-26T10:44:41.868Z,725.75
2016-08-26T10:45:41.868Z,726.62
2016-08-26T10:46:41.872Z,726.09
2016-08-26T10:47:41.869Z,726.61
2016-08-26T10:48:41.908Z,728.01
2016-08-26T10:49:41.869Z,728.5
2016-08-26T10:50:41.872Z,728.51
2016-08-26T10:51:41.882Z,728.86
2016-08-26T10:52:41.869Z,729.4
2016-08-26T10:53:41.870Z,730.43
2016-08-26T10:54:41.900Z,730.8
2016-08-26T10:55:41.870Z,731.79
2016-08-26T10:56:41.879Z,732.77
2016-08-26T10:57:41.885Z,733.38
2016-08-26T10:58:42.018Z,733.96
2016-08-26T10:59:52.618Z,733.79
2016-08-26T11:00:53.331Z,734
2016-08-26T11:02:02.092Z,733.51
2016-08-26T11:02:51.593Z,735.2
2016-08-26T11:04:03.245Z,735.9
2016-08-26T11:05:04.236Z,737.26
2016-08-26T11:06:27.962Z,737.47
2016-08-26T11:07:50.631Z,737.44
2016-08-26T11:09:13.990Z,737.81
2016-08-26T11:10:35.916Z,739.83
2016-08-26T11:11:57.962Z,740.35
2016-08-26T11:13:20.684Z,740.66
2016-08-26T11:14:43.943Z,741.18
2016-08-26T11:16:06.032Z,742.67
2016-08-26T11:17:27.416Z,745.29
2016-08-26T11:18:49.995Z,743.83
2016-08-26T11:19:37.868Z,744.16
2016-08-26T11:20:48.097Z,744
2016-08-26T11:22:03.853Z,744.05
2016-08-26T11:23:18.726Z,744.8
2016-08-26T11:24:34.029Z,744.13
2016-08-26T11:25:23.991Z,742.68
2016-08-26T11:26:23.948Z,741.83
2016-08-26T11:27:23.933Z,740.85
2016-08-26T11:28:23.929Z,740.82
2016-08-26T11:29:23.922Z,739.99
2016-08-26T11:30:23.927Z,738.64
2016-08-26T11:31:23.933Z,737.97
2016-08-26T11:32:23.930Z,737.57
2016-08-26T11:33:23.950Z,736.57
2016-08-26T11:34:23.933Z,735.39
2016-08-26T11:35:23.935Z,734.71
2016-08-26T11:36:23.936Z,734.01
2016-08-26T11:37:23.944Z,734.18
2016-08-26T11:38:23.949Z,733.7
2016-08-26T11:39:23.950Z,733.34
2016-08-26T11:40:23.948Z,732.33
2016-08-26T11:41:23.946Z,731.78
2016-08-26T11:42:23.949Z,731.08
2016-08-26T11:43:23.949Z,730.11
2016-08-26T11:44:23.946Z,728.45
2016-08-26T11:45:23.961Z,726.72
2016-08-26T11:46:23.956Z,725.39
2016-08-26T11:47:23.962Z,724.2
2016-08-26T11:48:23.964Z,724.38
2016-08-26T11:49:23.962Z,723.55
2016-08-26T11:50:23.953Z,722.91
2016-08-26T11:51:23.966Z,721.51
2016-08-26T11:52:23.961Z,720.8
2016-08-26T11:53:23.967Z,719.13
2016-08-26T11:54:23.964Z,718.42
2016-08-26T11:55:23.959Z,717.73
2016-08-26T11:56:23.962Z,717.08
2016-08-26T11:57:23.965Z,715.68
2016-08-26T11:58:23.964Z,716.38
2016-08-26T11:59:23.970Z,716.34
2016-08-26T12:00:23.963Z,716.01
2016-08-26T12:01:23.964Z,715.66
2016-08-26T12:02:23.980Z,715.96
2016-08-26T12:03:23.980Z,714.78
2016-08-26T12:04:23.979Z,714.16
2016-08-26T12:05:23.981Z,713.97
2016-08-26T12:06:23.972Z,713.44
2016-08-26T12:07:23.979Z,712.44
2016-08-26T12:08:23.985Z,711.78
2016-08-26T12:09:23.978Z,711.09
2016-08-26T12:10:23.983Z,710.57
2016-08-26T12:11:23.968Z,709.54
2016-08-26T12:12:23.985Z,708.67
2016-08-26T12:13:23.973Z,707.33
2016-08-26T12:14:23.980Z,706.43
2016-08-26T12:15:23.980Z,704.18
2016-08-26T12:16:23.977Z,702.97
2016-08-26T12:17:24.000Z,701.2
2016-08-26T12:18:23.995Z,700.15
2016-08-26T12:19:23.994Z,699.46
2016-08-26T12:20:24.000Z,698.41
2016-08-26T12:21:23.980Z,697.34
2016-08-26T12:22:23.987Z,695.58
2016-08-26T12:23:23.992Z,693.86
2016-08-26T12:24:23.988Z,691.72
2016-08-26T12:25:23.995Z,690.49
2016-08-26T12:26:24.018Z,689.26
2016-08-26T12:27:23.990Z,687.18
2016-08-26T12:28:23.997Z,686.59
2016-08-26T12:29:24.002Z,685.57
2016-08-26T12:30:23.993Z,684.11